createdAt,value
2022-08-20T00:01:01.913Z,101512.22
2022-08-20T00:05:04.493Z,101520.75
2022-08-20T00:09:06.842Z,101518.03
2022-08-20T00:13:11.486Z,101519.09
2022-08-20T00:17:16.780Z,101527.41
2022-08-20T00:21:20.248Z,101523.22
2022-08-20T00:25:22.730Z,101530.09
2022-08-20T00:29:24.371Z,101525.72
2022-08-20T00:33:26.141Z,101527.78
2022-08-20T00:37:27.727Z,101528.19
2022-08-20T00:41:31.023Z,101530.53
2022-08-20T00:45:35.228Z,101543.22
2022-08-20T00:49:37.369Z,101535.09
2022-08-20T00:53:39.680Z,101546.97
2022-08-20T00:58:01.107Z,101530.72
2022-08-20T01:02:07.544Z,101523.81
2022-08-20T01:06:11.767Z,101522.38
2022-08-20T01:10:19.430Z,101519.03
2022-08-20T01:14:22.038Z,101525.72
2022-08-20T01:18:27.039Z,101527.56
2022-08-20T01:22:58.255Z,101524.84
2022-08-20T01:27:03.058Z,101533.41
2022-08-20T01:31:07.930Z,101533.59
2022-08-20T01:35:10.423Z,101533.81
2022-08-20T01:39:14.890Z,101536.53
2022-08-20T01:43:17.246Z,101540.91
2022-08-20T01:47:29.600Z,101538.59
2022-08-20T01:51:31.367Z,101547.75
2022-08-20T01:55:32.970Z,101538.38
2022-08-20T01:59:34.699Z,101540.44
2022-08-20T02:03:39.765Z,101542.72
2022-08-20T02:07:44.706Z,101538.97
2022-08-20T02:11:47.634Z,101544.78
2022-08-20T02:15:49.275Z,101546.84
2022-08-20T02:20:23.781Z,101556.03
2022-08-20T02:24:25.482Z,101541.44
2022-08-20T02:28:28.026Z,101543.13
2022-08-20T02:32:33.986Z,101544.78
2022-08-20T02:36:37.576Z,101543.13
2022-08-20T02:40:40.460Z,101537.06
2022-08-20T02:44:42.751Z,101550.59
2022-08-20T02:48:44.536Z,101551.66
2022-08-20T02:52:51.541Z,101546.25
2022-08-20T02:56:53.922Z,101549.78
2022-08-20T03:00:56.693Z,101545.59
2022-08-20T03:04:58.390Z,101543.94
2022-08-20T03:09:00.757Z,101554.34
2022-08-20T03:13:03.575Z,101550.16
2022-08-20T03:17:05.456Z,101559.53
2022-08-20T03:21:09.870Z,101550.97
2022-08-20T03:25:12.337Z,101544.31
2022-08-20T03:29:14.212Z,101553.63
2022-08-20T03:33:16.412Z,101559.66
2022-08-20T03:37:18.103Z,101557.13
2022-08-20T03:41:19.840Z,101557.25
2022-08-20T03:45:23.447Z,101553.09
2022-08-20T03:49:25.305Z,101556.81
2022-08-20T03:53:31.649Z,101555.38
2022-08-20T03:57:33.425Z,101555.75
2022-08-20T04:01:45.170Z,101551.78
2022-08-20T04:05:49.278Z,101550.69
2022-08-20T04:09:52.429Z,101554.00
2022-08-20T04:13:54.047Z,101556.88
2022-08-20T04:17:56.504Z,101570.16
2022-08-20T04:21:58.356Z,101571.31
2022-08-20T04:26:00.863Z,101573.53
2022-08-20T04:30:04.041Z,101573.69
2022-08-20T04:34:08.960Z,101574.47
2022-08-20T04:38:15.942Z,101566.28
2022-08-20T04:42:17.555Z,101577.66
2022-08-20T04:46:19.412Z,101581.38
2022-08-20T04:50:22.444Z,101588.47
2022-08-20T04:54:27.821Z,101592.19
2022-08-20T04:58:33.667Z,101593.88
2022-08-20T05:02:35.866Z,101592.19
2022-08-20T05:06:37.674Z,101602.16
2022-08-20T05:10:40.812Z,101604.88
2022-08-20T05:14:42.648Z,101609.22
2022-08-20T05:18:45.290Z,101609.06
2022-08-20T05:22:56.161Z,101622.56
2022-08-20T05:27:00.084Z,101617.16
2022-08-20T05:31:02.423Z,101615.38
2022-08-20T05:35:07.860Z,101623.38
2022-08-20T05:39:10.561Z,101624.25
2022-08-20T05:43:12.685Z,101632.88
2022-08-20T05:47:14.432Z,101633.34
2022-08-20T05:51:16.216Z,101638.44
2022-08-20T05:55:17.889Z,101641.00
2022-08-20T05:59:24.043Z,101640.41
2022-08-20T06:03:44.458Z,101645.25
2022-08-20T06:07:46.482Z,101652.38
2022-08-20T06:11:48.102Z,101647.19
2022-08-20T06:15:50.231Z,101657.22
2022-08-20T06:19:52.103Z,101652.47
2022-08-20T06:23:56.817Z,101649.66
2022-08-20T06:28:03.793Z,101642.19
2022-08-20T06:32:05.778Z,101642.66
2022-08-20T06:36:07.804Z,101648.94
2022-08-20T06:40:18.257Z,101641.69
2022-08-20T06:44:20.080Z,101639.00
2022-08-20T06:48:21.676Z,101644.03
2022-08-20T06:52:27.069Z,101649.06
2022-08-20T06:56:45.228Z,101652.44
2022-08-20T07:00:47.962Z,101659.75
2022-08-20T07:04:49.590Z,101667.06
2022-08-20T07:08:51.280Z,101670.81
2022-08-20T07:12:53.396Z,101670.06
2022-08-20T07:16:55.130Z,101671.09
2022-08-20T07:20:57.619Z,101674.66
2022-08-20T07:24:59.384Z,101671.75
2022-08-20T07:29:01.128Z,101681.78
2022-08-20T07:33:02.809Z,101682.63
2022-08-20T07:37:09.306Z,101693.91
2022-08-20T07:41:13.465Z,101691.81
2022-08-20T07:45:18.720Z,101682.84
2022-08-20T07:49:20.353Z,101678.44
2022-08-20T07:53:22.063Z,101687.22
2022-08-20T07:57:23.659Z,101690.97
2022-08-20T08:01:31.496Z,101697.03
2022-08-20T08:05:34.673Z,101698.88
2022-08-20T08:09:37.475Z,101694.09
2022-08-20T08:13:41.114Z,101702.28
2022-08-20T08:17:46.392Z,101700.38
2022-08-20T08:21:49.512Z,101701.00
2022-08-20T08:25:52.185Z,101709.72
2022-08-20T08:29:54.587Z,101706.78
2022-08-20T08:33:56.518Z,101695.50
2022-08-20T08:38:02.530Z,101713.03
2022-08-20T08:42:24.426Z,101709.28
2022-08-20T08:46:28.083Z,101712.63
2022-08-20T08:50:53.663Z,101710.94
2022-08-20T08:54:58.386Z,101709.25
2022-08-20T08:59:07.728Z,101721.97
2022-08-20T09:03:15.631Z,101720.06
2022-08-20T09:07:18.199Z,101721.31
2022-08-20T09:11:22.675Z,101733.03
2022-08-20T09:15:24.337Z,101715.22
2022-08-20T09:19:26.280Z,101717.88
2022-08-20T09:23:27.992Z,101719.78
2022-08-20T09:27:31.255Z,101727.16
2022-08-20T09:31:32.939Z,101731.75
2022-08-20T09:35:34.741Z,101732.59
2022-08-20T09:39:36.696Z,101719.69
2022-08-20T09:43:38.396Z,101727.44
2022-08-20T09:47:43.824Z,101725.31
2022-08-20T09:51:59.266Z,101722.59
2022-08-20T09:56:00.984Z,101719.44
2022-08-20T10:00:08.940Z,101707.72
2022-08-20T10:04:16.319Z,101702.06
2022-08-20T10:08:18.216Z,101709.97
2022-08-20T10:12:19.889Z,101701.13
2022-08-20T10:16:21.570Z,101691.91
2022-08-20T10:20:24.815Z,101705.47
2022-08-20T10:24:27.545Z,101697.53
2022-08-20T10:28:29.165Z,101710.66
2022-08-20T10:32:30.906Z,101712.25
2022-08-20T10:36:32.632Z,101699.19
2022-08-20T10:40:34.466Z,101694.47
2022-08-20T10:44:36.289Z,101692.72
2022-08-20T10:48:38.319Z,101691.84
2022-08-20T10:52:39.987Z,101693.84
2022-08-20T10:56:41.848Z,101696.53
2022-08-20T11:00:43.539Z,101695.84
2022-08-20T11:04:47.471Z,101693.00
2022-08-20T11:08:49.108Z,101700.63
2022-08-20T11:12:50.696Z,101698.28
2022-08-20T11:16:52.296Z,101713.81
2022-08-20T11:20:53.906Z,101709.19
2022-08-20T11:24:55.882Z,101705.41
2022-08-20T11:28:57.719Z,101706.84
2022-08-20T11:33:00.963Z,101704.38
2022-08-20T11:37:02.626Z,101701.47
2022-08-20T11:41:04.275Z,101707.94
2022-08-20T11:45:06.869Z,101701.91
2022-08-20T11:49:08.559Z,101695.41
2022-08-20T11:53:10.211Z,101705.38
2022-08-20T11:57:11.853Z,101709.50
2022-08-20T12:01:14.406Z,101713.88
2022-08-20T12:05:16.090Z,101710.38
2022-08-20T12:09:21.846Z,101709.16
2022-08-20T12:13:35.987Z,101703.72
2022-08-20T12:17:50.308Z,101697.81
2022-08-20T12:21:51.914Z,101700.25
2022-08-20T12:25:53.906Z,101701.00
2022-08-20T12:29:58.112Z,101705.56
2022-08-20T12:33:59.715Z,101708.06
2022-08-20T12:38:05.832Z,101698.59
2022-08-20T12:42:08.495Z,101712.41
2022-08-20T12:50:18.266Z,101705.06
2022-08-20T12:54:19.861Z,101715.66
2022-08-20T12:58:21.456Z,101719.50
2022-08-20T13:02:23.220Z,101723.88
2022-08-20T13:06:24.846Z,101718.25
2022-08-20T13:10:30.048Z,101716.00
2022-08-20T13:14:31.769Z,101717.66
2022-08-20T13:18:33.450Z,101724.47
2022-08-20T13:22:35.286Z,101710.56
2022-08-20T13:26:37.013Z,101715.13
2022-08-20T13:30:41.349Z,101715.56
2022-08-20T13:34:43.848Z,101721.53
2022-08-20T13:38:45.435Z,101721.16
2022-08-20T13:42:47.229Z,101721.59
2022-08-20T13:46:48.811Z,101721.91
2022-08-20T13:50:50.495Z,101719.41
2022-08-20T13:54:52.170Z,101732.44
2022-08-20T13:58:53.800Z,101733.84
2022-08-20T14:02:55.922Z,101733.97
2022-08-20T14:06:57.615Z,101735.78
2022-08-20T14:10:59.611Z,101720.41
2022-08-20T14:15:01.416Z,101721.69
2022-08-20T14:19:03.320Z,101725.06
2022-08-20T14:23:04.980Z,101727.97
2022-08-20T14:27:08.018Z,101717.84
2022-08-20T14:31:09.626Z,101719.94
2022-08-20T14:35:12.124Z,101730.84
2022-08-20T14:39:17.288Z,101721.00
2022-08-20T14:43:21.576Z,101714.50
2022-08-20T14:47:29.636Z,101718.28
2022-08-20T14:51:31.371Z,101712.69
2022-08-20T14:55:37.349Z,101722.75
2022-08-20T14:59:39.030Z,101713.75
2022-08-20T15:03:40.608Z,101721.69
2022-08-20T15:07:45.156Z,101703.69
2022-08-20T15:11:49.134Z,101711.59
2022-08-20T15:15:50.921Z,101703.41
2022-08-20T15:19:53.363Z,101707.84
2022-08-20T15:23:54.980Z,101709.13
2022-08-20T15:28:01.567Z,101712.47
2022-08-20T15:32:03.851Z,101714.19
2022-08-20T15:36:07.146Z,101717.94
2022-08-20T15:40:10.123Z,101711.22
2022-08-20T15:44:11.820Z,101717.06
2022-08-20T15:48:17.790Z,101711.25
2022-08-20T15:52:19.574Z,101713.81
2022-08-20T15:56:56.597Z,101718.28
2022-08-20T16:01:23.783Z,101720.00
2022-08-20T16:05:47.847Z,101725.59
2022-08-20T16:10:16.046Z,101710.91
2022-08-20T16:14:21.564Z,101704.63
2022-08-20T16:18:27.461Z,101715.50
2022-08-20T16:22:31.674Z,101717.22
2022-08-20T16:26:55.835Z,101716.00
2022-08-20T16:31:09.616Z,101724.19
2022-08-20T16:35:22.654Z,101720.66
2022-08-20T16:39:37.756Z,101723.53
2022-08-20T16:43:52.978Z,101728.81
2022-08-20T16:48:00.984Z,101724.44
2022-08-20T16:52:03.096Z,101720.22
2022-08-20T16:56:05.659Z,101719.75
2022-08-20T17:00:26.085Z,101719.81
2022-08-20T17:04:27.949Z,101724.03
2022-08-20T17:08:36.456Z,101720.91
2022-08-20T17:12:39.680Z,101720.91
2022-08-20T17:16:52.896Z,101719.44
2022-08-20T17:21:26.052Z,101714.38
2022-08-20T17:25:39.353Z,101722.75
2022-08-20T17:29:51.846Z,101717.56
2022-08-20T17:33:53.799Z,101714.69
2022-08-20T17:37:55.856Z,101712.81
2022-08-20T17:42:15.652Z,101707.41
2022-08-20T17:46:17.769Z,101709.56
2022-08-20T17:50:23.566Z,101711.47
2022-08-20T17:54:32.680Z,101712.50
2022-08-20T17:58:54.444Z,101709.22
2022-08-20T18:03:01.233Z,101709.66
2022-08-20T18:07:11.942Z,101713.44
2022-08-20T18:11:41.630Z,101710.53
2022-08-20T18:15:55.202Z,101705.34
2022-08-20T18:20:11.491Z,101709.31
2022-08-20T18:24:18.912Z,101709.75
2022-08-20T18:28:35.183Z,101727.31
2022-08-20T18:32:39.561Z,101716.44
2022-08-20T18:36:42.042Z,101721.88
2022-08-20T18:40:43.663Z,101722.47
2022-08-20T18:44:47.602Z,101714.97
2022-08-20T18:48:55.538Z,101712.47
2022-08-20T18:53:19.596Z,101718.09
2022-08-20T18:57:41.719Z,101713.31
2022-08-20T19:01:48.295Z,101717.66
2022-08-20T19:05:49.866Z,101715.16
2022-08-20T19:10:00.558Z,101717.03
2022-08-20T19:14:20.278Z,101716.38
2022-08-20T19:18:30.433Z,101719.94
2022-08-20T19:22:34.306Z,101718.28
2022-08-20T19:26:43.967Z,101713.84
2022-08-20T19:30:46.147Z,101712.59
2022-08-20T19:35:03.975Z,101719.19
2022-08-20T19:39:24.707Z,101717.28
2022-08-20T19:43:28.005Z,101710.81
2022-08-20T19:48:17.362Z,101710.16
2022-08-20T19:52:40.672Z,101715.72
2022-08-20T19:56:42.285Z,101711.13
2022-08-20T20:00:47.774Z,101718.81
2022-08-20T20:04:55.640Z,101711.31
2022-08-20T20:09:03.243Z,101710.63
2022-08-20T20:13:27.644Z,101709.34
2022-08-20T20:17:35.978Z,101716.03
2022-08-20T20:21:41.938Z,101707.47
2022-08-20T20:25:46.104Z,101706.84
2022-08-20T20:29:48.438Z,101703.88
2022-08-20T20:33:54.406Z,101699.69
2022-08-20T20:38:00.343Z,101700.69
2022-08-20T20:42:04.162Z,101687.28
2022-08-20T20:46:23.239Z,101683.47
2022-08-20T20:50:33.787Z,101678.00
2022-08-20T20:54:35.371Z,101680.94
2022-08-20T20:58:37.175Z,101676.94
2022-08-20T21:02:39.513Z,101683.41
2022-08-20T21:06:41.139Z,101677.34
2022-08-20T21:10:42.833Z,101687.91
2022-08-20T21:14:45.030Z,101685.16
2022-08-20T21:18:47.577Z,101689.34
2022-08-20T21:22:49.440Z,101687.72
2022-08-20T21:26:52.187Z,101689.19
2022-08-20T21:30:58.334Z,101686.50
2022-08-20T21:35:00.281Z,101690.25
2022-08-20T21:39:01.988Z,101687.53
2022-08-20T21:43:04.174Z,101682.13
2022-08-20T21:47:08.064Z,101677.72
2022-08-20T21:51:09.679Z,101672.47
2022-08-20T21:55:11.268Z,101672.63
2022-08-20T21:59:16.464Z,101674.44
2022-08-20T22:03:20.059Z,101668.34
2022-08-20T22:07:22.272Z,101664.78
2022-08-20T22:11:25.084Z,101670.19
2022-08-20T22:15:26.796Z,101673.22
2022-08-20T22:19:28.460Z,101657.16
2022-08-20T22:23:30.089Z,101666.84
2022-08-20T22:27:31.692Z,101658.50
2022-08-20T22:31:37.429Z,101659.72
2022-08-20T22:35:44.868Z,101654.69
2022-08-20T22:39:49.305Z,101648.78
2022-08-20T22:43:55.856Z,101647.50
2022-08-20T22:47:59.693Z,101641.47
2022-08-20T22:52:01.415Z,101647.25
2022-08-20T22:56:03.279Z,101642.53
2022-08-20T23:00:11.858Z,101650.88
2022-08-20T23:04:21.982Z,101648.44
2022-08-20T23:08:23.720Z,101646.41
2022-08-20T23:12:28.781Z,101646.03
2022-08-20T23:16:30.389Z,101643.94
2022-08-20T23:20:32.230Z,101640.41
2022-08-20T23:24:34.984Z,101633.13
2022-08-20T23:28:36.751Z,101622.91
2022-08-20T23:32:38.855Z,101629.16
2022-08-20T23:36:40.669Z,101628.13
2022-08-20T23:40:42.394Z,101624.56
2022-08-20T23:44:45.312Z,101632.88
2022-08-20T23:48:46.982Z,101627.88
2022-08-20T23:52:48.679Z,101629.25
2022-08-20T23:56:50.399Z,101618.81
